Time;durP1;ratioP1;P1;durP2;ratioP2;P2;SDS_P1;SDS_P2;PMS_P1;PMS_P2;Temp;Humidity;BMP_temperature;BMP_pressure;BME280_temperature;BME280_humidity;BME280_pressure;Samples;Min_cycle;Max_cycle;Signal;HPM_P1;HPM_P2
2023/09/01 00:00:06;;;;;;;0.60;0.40;;;;;;;;;;4999728;28;20038;-80
2023/09/01 00:02:32;;;;;;;0.50;0.50;;;;;;;;;;4996994;28;20026;-80
2023/09/01 00:04:58;;;;;;;0.35;0.35;;;;;;;;;;4995774;28;20123;-80
2023/09/01 00:07:24;;;;;;;0.82;0.40;;;;;;;;;;5004859;28;20038;-80
2023/09/01 00:09:51;;;;;;;0.40;0.40;;;;;;;;;;5005976;28;20026;-80
2023/09/01 00:12:17;;;;;;;0.50;0.50;;;;;;;;;;5001005;28;20064;-80
2023/09/01 00:14:43;;;;;;;0.63;0.60;;;;;;;;;;4997988;28;20023;-80
2023/09/01 00:17:09;;;;;;;0.60;0.40;;;;;;;;;;5001182;28;20030;-80
2023/09/01 00:19:35;;;;;;;0.50;0.50;;;;;;;;;;4998327;28;20034;-81
2023/09/01 00:22:02;;;;;;;0.60;0.60;;;;;;;;;;4995375;28;20030;-80
2023/09/01 00:24:30;;;;;;;0.90;0.50;;;;;;;;;;5000430;28;20030;-80
2023/09/01 00:26:56;;;;;;;0.60;0.47;;;;;;;;;;5002242;28;20029;-80
2023/09/01 00:29:22;;;;;;;0.40;0.40;;;;;;;;;;4997396;28;20061;-81
2023/09/01 00:31:49;;;;;;;0.60;0.60;;;;;;;;;;4993414;28;20726;-80
2023/09/01 00:34:15;;;;;;;2.03;0.73;;;;;;;;;;4995931;28;20024;-81
2023/09/01 00:36:41;;;;;;;0.50;0.50;;;;;;;;;;4994273;28;20482;-80
2023/09/01 00:39:08;;;;;;;0.70;0.47;;;;;;;;;;4996335;28;20647;-81
2023/09/01 00:41:34;;;;;;;0.35;0.32;;;;;;;;;;5002904;28;20042;-81
2023/09/01 00:44:03;;;;;;;0.43;0.43;;;;;;;;;;4998635;28;20424;-81
2023/09/01 00:46:29;;;;;;;1.98;0.50;;;;;;;;;;5003446;28;20018;-81
2023/09/01 00:48:56;;;;;;;0.60;0.60;;;;;;;;;;4994212;28;20036;-81
2023/09/01 00:51:22;;;;;;;0.40;0.40;;;;;;;;;;5001353;28;20033;-81
2023/09/01 00:53:49;;;;;;;0.60;0.43;;;;;;;;;;5002189;28;20030;-81
2023/09/01 00:56:15;;;;;;;0.80;0.65;;;;;;;;;;5000952;28;20026;-80
2023/09/01 00:58:41;;;;;;;0.77;0.70;;;;;;;;;;4996730;28;20049;-81
2023/09/01 01:01:07;;;;;;;0.63;0.57;;;;;;;;;;4991739;28;20034;-80
2023/09/01 01:03:33;;;;;;;0.40;0.40;;;;;;;;;;5002231;28;20026;-80
2023/09/01 01:06:11;;;;;;;0.60;0.55;;;;;;;;;;4993146;28;20505;-80
2023/09/01 01:08:49;;;;;;;0.38;0.30;;;;;;;;;;4995952;28;20037;-80
2023/09/01 01:11:25;;;;;;;0.30;0.30;;;;;;;;;;5005202;28;20458;-80
2023/09/01 01:13:54;;;;;;;0.55;0.40;;;;;;;;;;5000450;28;20097;-80
2023/09/01 01:16:21;;;;;;;0.38;0.38;;;;;;;;;;5000452;28;20151;-81
2023/09/01 01:18:48;;;;;;;0.40;0.40;;;;;;;;;;4993285;28;20034;-81
2023/09/01 01:21:18;;;;;;;0.40;0.40;;;;;;;;;;4998503;28;20486;-80
2023/09/01 01:23:44;;;;;;;0.57;0.57;;;;;;;;;;4997390;28;20497;-81
2023/09/01 01:26:14;;;;;;;1.27;0.80;;;;;;;;;;4998008;28;20087;-80
2023/09/01 01:28:40;;;;;;;2.50;1.25;;;;;;;;;;5004836;28;20106;-81
2023/09/01 01:31:07;;;;;;;0.60;0.45;;;;;;;;;;4998620;28;20035;-80
2023/09/01 01:33:55;;;;;;;2.45;0.50;;;;;;;;;;5004194;28;21853;-81
2023/09/01 01:36:27;;;;;;;0.22;0.22;;;;;;;;;;5002399;28;20025;-81
2023/09/01 01:38:58;;;;;;;0.32;0.32;;;;;;;;;;5000019;28;20027;-81
2023/09/01 01:41:33;;;;;;;0.63;0.40;;;;;;;;;;4997241;28;20363;-80
2023/09/01 01:44:00;;;;;;;0.40;0.40;;;;;;;;;;5000998;28;20032;-81
2023/09/01 01:46:27;;;;;;;0.50;0.30;;;;;;;;;;5007209;28;20466;-81
2023/09/01 01:48:53;;;;;;;0.85;0.73;;;;;;;;;;4997432;28;20069;-81
2023/09/01 01:51:19;;;;;;;0.70;0.70;;;;;;;;;;5001807;28;20069;-81
2023/09/01 01:53:45;;;;;;;1.98;0.50;;;;;;;;;;4999927;28;20382;-81
2023/09/01 01:56:13;;;;;;;0.40;0.40;;;;;;;;;;5002171;28;20034;-81
2023/09/01 01:58:39;;;;;;;0.88;0.82;;;;;;;;;;5006369;28;20057;-80
2023/09/01 02:01:08;;;;;;;0.47;0.30;;;;;;;;;;5002113;28;20042;-80
2023/09/01 02:03:35;;;;;;;0.38;0.38;;;;;;;;;;5009367;28;20056;-81
2023/09/01 02:06:01;;;;;;;0.40;0.40;;;;;;;;;;5008937;28;20033;-80
2023/09/01 02:08:27;;;;;;;1.15;0.80;;;;;;;;;;5000021;28;20029;-81
2023/09/01 02:10:53;;;;;;;0.60;0.30;;;;;;;;;;4997106;28;20109;-81
2023/09/01 02:13:19;;;;;;;0.50;0.40;;;;;;;;;;5008222;28;20026;-80
2023/09/01 02:15:52;;;;;;;0.45;0.45;;;;;;;;;;5004170;28;20018;-80
2023/09/01 02:18:18;;;;;;;0.52;0.45;;;;;;;;;;5004897;28;20036;-81
2023/09/01 02:20:43;;;;;;;0.40;0.40;;;;;;;;;;5004712;28;20026;-81
2023/09/01 02:23:09;;;;;;;0.43;0.43;;;;;;;;;;5002817;28;20080;-80
2023/09/01 02:25:37;;;;;;;0.45;0.45;;;;;;;;;;5000253;28;20505;-81
2023/09/01 02:28:04;;;;;;;0.30;0.30;;;;;;;;;;5002143;28;20111;-81
2023/09/01 02:30:30;;;;;;;0.38;0.38;;;;;;;;;;5003868;28;20030;-80
2023/09/01 02:32:56;;;;;;;0.43;0.40;;;;;;;;;;5006918;28;20030;-80
2023/09/01 02:35:22;;;;;;;0.35;0.35;;;;;;;;;;4999381;28;20104;-81
2023/09/01 02:37:49;;;;;;;0.20;0.20;;;;;;;;;;4998602;28;20034;-80
2023/09/01 02:40:30;;;;;;;0.30;0.30;;;;;;;;;;5000133;28;20121;-81
2023/09/01 02:42:56;;;;;;;0.28;0.20;;;;;;;;;;4999358;28;20018;-80
2023/09/01 02:45:23;;;;;;;0.40;0.25;;;;;;;;;;4998485;28;20128;-81
2023/09/01 02:47:49;;;;;;;0.20;0.20;;;;;;;;;;5005467;28;20026;-80
2023/09/01 02:50:15;;;;;;;0.82;0.43;;;;;;;;;;4994377;28;20028;-80
2023/09/01 02:52:41;;;;;;;0.40;0.30;;;;;;;;;;5005987;28;20018;-80
2023/09/01 02:55:08;;;;;;;0.32;0.32;;;;;;;;;;5006874;28;20025;-80
2023/09/01 02:57:35;;;;;;;0.52;0.40;;;;;;;;;;5002573;28;20103;-81
2023/09/01 03:00:01;;;;;;;0.65;0.65;;;;;;;;;;5000701;28;20034;-80
2023/09/01 03:02:27;;;;;;;0.38;0.38;;;;;;;;;;5004071;28;20026;-80
2023/09/01 03:04:55;;;;;;;0.20;0.20;;;;;;;;;;5007668;28;20029;-80
2023/09/01 03:07:21;;;;;;;0.68;0.32;;;;;;;;;;5006740;28;20528;-80
2023/09/01 03:09:47;;;;;;;0.57;0.40;;;;;;;;;;5007313;28;20018;-81
2023/09/01 03:12:14;;;;;;;1.98;0.40;;;;;;;;;;4997351;28;20144;-81
2023/09/01 03:14:40;;;;;;;9.63;0.75;;;;;;;;;;5001094;28;20109;-81
2023/09/01 03:17:06;;;;;;;0.30;0.30;;;;;;;;;;5004310;28;20038;-81
2023/09/01 03:19:32;;;;;;;0.52;0.50;;;;;;;;;;4996035;28;20081;-81
2023/09/01 03:21:58;;;;;;;0.47;0.40;;;;;;;;;;5000188;28;20384;-80
2023/09/01 03:24:24;;;;;;;0.75;0.63;;;;;;;;;;5002255;28;20023;-81
2023/09/01 03:26:50;;;;;;;0.43;0.40;;;;;;;;;;5006006;28;20042;-81
2023/09/01 03:29:16;;;;;;;0.55;0.52;;;;;;;;;;5001544;28;20041;-81
2023/09/01 03:31:43;;;;;;;0.55;0.50;;;;;;;;;;4997890;28;20076;-80
2023/09/01 03:34:09;;;;;;;0.30;0.30;;;;;;;;;;5002152;28;20029;-80
2023/09/01 03:36:36;;;;;;;0.30;0.30;;;;;;;;;;4996268;28;20028;-81
2023/09/01 03:39:02;;;;;;;0.55;0.40;;;;;;;;;;4998950;28;20076;-81
2023/09/01 03:41:28;;;;;;;0.22;0.22;;;;;;;;;;4999694;28;20482;-81
2023/09/01 03:43:54;;;;;;;0.28;0.28;;;;;;;;;;5004645;28;20026;-81
2023/09/01 03:46:20;;;;;;;0.57;0.40;;;;;;;;;;5005397;28;20038;-81
2023/09/01 03:48:46;;;;;;;0.70;0.55;;;;;;;;;;5006568;28;20026;-81
2023/09/01 03:51:14;;;;;;;0.50;0.50;;;;;;;;;;4999629;28;20501;-81
2023/09/01 03:53:40;;;;;;;0.30;0.30;;;;;;;;;;5000483;28;20053;-81
2023/09/01 03:56:17;;;;;;;0.40;0.40;;;;;;;;;;4995664;28;20031;-81
2023/09/01 03:58:43;;;;;;;0.40;0.40;;;;;;;;;;4991397;28;20514;-81
2023/09/01 04:01:11;;;;;;;0.50;0.50;;;;;;;;;;4995816;28;20056;-81
2023/09/01 04:03:38;;;;;;;2.50;0.70;;;;;;;;;;5002628;28;20049;-81
2023/09/01 04:06:05;;;;;;;0.40;0.40;;;;;;;;;;5002254;28;20038;-81
2023/09/01 04:08:31;;;;;;;0.30;0.30;;;;;;;;;;5000948;28;20493;-81
2023/09/01 04:10:57;;;;;;;0.43;0.43;;;;;;;;;;5004473;28;20033;-81
2023/09/01 04:13:23;;;;;;;0.95;0.52;;;;;;;;;;5003698;28;20452;-81
2023/09/01 04:15:50;;;;;;;0.50;0.40;;;;;;;;;;4996939;28;20488;-81
2023/09/01 04:18:17;;;;;;;0.20;0.20;;;;;;;;;;5005805;28;20022;-81
2023/09/01 04:20:49;;;;;;;0.95;0.30;;;;;;;;;;5002380;28;20022;-81
2023/09/01 04:23:15;;;;;;;0.40;0.40;;;;;;;;;;4995984;28;20053;-81
2023/09/01 04:25:44;;;;;;;0.50;0.50;;;;;;;;;;4997028;28;20038;-80
2023/09/01 04:28:10;;;;;;;2.47;0.40;;;;;;;;;;4998868;28;20064;-81
2023/09/01 04:30:36;;;;;;;0.40;0.40;;;;;;;;;;4998805;28;20104;-81
2023/09/01 04:33:04;;;;;;;0.43;0.43;;;;;;;;;;5007220;28;20061;-81
2023/09/01 04:35:31;;;;;;;0.45;0.45;;;;;;;;;;4994952;28;20449;-81
2023/09/01 04:37:57;;;;;;;0.45;0.45;;;;;;;;;;5000848;28;20105;-86
2023/09/01 04:40:23;;;;;;;0.40;0.40;;;;;;;;;;5002209;28;20881;-86
2023/09/01 04:42:48;;;;;;;0.82;0.40;;;;;;;;;;5004584;28;20095;-84
2023/09/01 04:45:14;;;;;;;0.90;0.50;;;;;;;;;;5003807;28;20041;-84
2023/09/01 04:47:40;;;;;;;0.55;0.40;;;;;;;;;;5007069;28;20037;-84
2023/09/01 04:50:06;;;;;;;0.95;0.70;;;;;;;;;;5000567;28;20038;-81
2023/09/01 04:52:32;;;;;;;0.35;0.30;;;;;;;;;;4999134;28;20026;-80
2023/09/01 04:54:58;;;;;;;0.38;0.38;;;;;;;;;;4999212;28;20034;-87
2023/09/01 04:57:24;;;;;;;0.50;0.50;;;;;;;;;;5008372;28;20053;-85
2023/09/01 04:59:50;;;;;;;0.22;0.22;;;;;;;;;;4995218;28;20069;-85
2023/09/01 05:02:17;;;;;;;0.77;0.40;;;;;;;;;;5000287;28;20038;-84
2023/09/01 05:04:43;;;;;;;2.38;0.52;;;;;;;;;;5000572;28;20023;-84
2023/09/01 05:07:12;;;;;;;0.40;0.40;;;;;;;;;;5011068;28;20060;-84
2023/09/01 05:09:37;;;;;;;0.43;0.40;;;;;;;;;;5005066;28;20041;-89
2023/09/01 05:12:04;;;;;;;0.47;0.47;;;;;;;;;;5000777;28;20029;-81
2023/09/01 05:14:30;;;;;;;0.30;0.30;;;;;;;;;;5000594;28;20030;-84
2023/09/01 05:16:56;;;;;;;0.68;0.45;;;;;;;;;;4997823;28;20395;-82
2023/09/01 05:19:22;;;;;;;0.82;0.60;;;;;;;;;;5003027;28;20030;-82
2023/09/01 05:21:48;;;;;;;0.30;0.30;;;;;;;;;;5006891;28;20121;-82
2023/09/01 05:24:14;;;;;;;0.47;0.45;;;;;;;;;;5006367;28;20113;-83
2023/09/01 05:26:40;;;;;;;0.68;0.40;;;;;;;;;;5002553;28;20080;-82
2023/09/01 05:29:06;;;;;;;0.90;0.50;;;;;;;;;;5000466;28;20030;-85
2023/09/01 05:31:32;;;;;;;0.40;0.40;;;;;;;;;;5003205;28;20037;-83
2023/09/01 05:33:58;;;;;;;0.60;0.60;;;;;;;;;;4993457;28;20026;-83
2023/09/01 05:36:24;;;;;;;0.35;0.28;;;;;;;;;;4998607;28;20046;-82
2023/09/01 05:38:50;;;;;;;0.50;0.50;;;;;;;;;;5001879;28;20101;-81
2023/09/01 05:41:16;;;;;;;0.40;0.38;;;;;;;;;;5007007;28;20029;-81
2023/09/01 05:43:42;;;;;;;0.85;0.85;;;;;;;;;;4998491;28;20030;-81
2023/09/01 05:46:08;;;;;;;0.55;0.43;;;;;;;;;;5001298;28;20466;-82
2023/09/01 05:48:36;;;;;;;0.55;0.43;;;;;;;;;;4999503;28;20027;-82
2023/09/01 05:51:02;;;;;;;0.50;0.40;;;;;;;;;;5000711;28;20030;-82
2023/09/01 05:53:28;;;;;;;0.50;0.50;;;;;;;;;;5007100;28;20030;-87
2023/09/01 05:55:54;;;;;;;0.60;0.50;;;;;;;;;;4998637;28;20048;-81
2023/09/01 05:58:20;;;;;;;0.55;0.50;;;;;;;;;;5004615;28;20093;-84
2023/09/01 06:00:46;;;;;;;0.60;0.60;;;;;;;;;;4996613;28;20026;-85
2023/09/01 06:03:12;;;;;;;0.50;0.50;;;;;;;;;;5007911;28;20091;-82
2023/09/01 06:05:38;;;;;;;0.55;0.40;;;;;;;;;;4998908;28;20038;-82
2023/09/01 06:08:05;;;;;;;0.50;0.50;;;;;;;;;;4997027;28;20030;-80
2023/09/01 06:10:31;;;;;;;1.00;0.88;;;;;;;;;;4996611;28;20390;-90
2023/09/01 06:12:57;;;;;;;0.60;0.60;;;;;;;;;;5010416;28;20017;-85
2023/09/01 06:15:23;;;;;;;0.68;0.68;;;;;;;;;;5002025;28;20026;-87
2023/09/01 06:17:49;;;;;;;0.68;0.40;;;;;;;;;;5009634;28;20025;-86
2023/09/01 06:20:15;;;;;;;0.77;0.65;;;;;;;;;;5002937;28;20034;-87
2023/09/01 06:22:41;;;;;;;0.93;0.70;;;;;;;;;;5010778;28;20030;-85
2023/09/01 06:25:07;;;;;;;0.50;0.40;;;;;;;;;;5007285;28;20100;-87
2023/09/01 06:27:37;;;;;;;3.80;0.40;;;;;;;;;;5005415;28;20018;-86
2023/09/01 06:30:03;;;;;;;0.30;0.30;;;;;;;;;;5007349;28;20104;-85
2023/09/01 06:32:29;;;;;;;0.35;0.35;;;;;;;;;;5002415;28;20486;-84
2023/09/01 06:34:55;;;;;;;0.50;0.50;;;;;;;;;;5007088;28;20092;-84
2023/09/01 06:37:21;;;;;;;0.60;0.60;;;;;;;;;;4998774;28;20386;-86
2023/09/01 06:39:47;;;;;;;0.40;0.40;;;;;;;;;;5009490;28;20490;-86
2023/09/01 06:42:13;;;;;;;0.45;0.45;;;;;;;;;;5011767;28;20394;-86
2023/09/01 06:44:39;;;;;;;0.77;0.60;;;;;;;;;;5009487;28;20382;-84
2023/09/01 06:47:04;;;;;;;0.60;0.50;;;;;;;;;;5005771;28;20044;-85
2023/09/01 06:49:31;;;;;;;0.40;0.40;;;;;;;;;;4997058;28;20038;-84
2023/09/01 06:51:58;;;;;;;0.50;0.50;;;;;;;;;;4992974;28;20018;-82
2023/09/01 06:54:24;;;;;;;0.68;0.68;;;;;;;;;;4992542;28;20037;-83
2023/09/01 06:56:50;;;;;;;1.35;1.02;;;;;;;;;;4995171;28;20038;-84
2023/09/01 06:59:16;;;;;;;0.50;0.50;;;;;;;;;;4998212;28;20030;-84
2023/09/01 07:01:42;;;;;;;0.65;0.65;;;;;;;;;;4998005;28;20022;-84
2023/09/01 07:04:08;;;;;;;0.52;0.52;;;;;;;;;;5004117;28;20063;-83
2023/09/01 07:06:34;;;;;;;2.25;0.82;;;;;;;;;;5003185;28;20034;-84
2023/09/01 07:09:00;;;;;;;2.40;0.90;;;;;;;;;;5005532;28;20080;-84
2023/09/01 07:11:26;;;;;;;0.40;0.40;;;;;;;;;;5001476;28;20022;-84
2023/09/01 07:13:52;;;;;;;0.50;0.40;;;;;;;;;;5007641;28;20029;-83
2023/09/01 07:16:18;;;;;;;0.52;0.52;;;;;;;;;;5006687;28;20029;-82
2023/09/01 07:18:44;;;;;;;1.02;0.50;;;;;;;;;;5009581;28;20573;-84
2023/09/01 07:21:10;;;;;;;1.17;0.50;;;;;;;;;;5006428;28;20033;-83
2023/09/01 07:23:36;;;;;;;0.55;0.55;;;;;;;;;;5005038;28;20022;-84
2023/09/01 07:26:03;;;;;;;0.50;0.50;;;;;;;;;;5008196;28;20029;-83
2023/09/01 07:28:29;;;;;;;0.65;0.50;;;;;;;;;;5009731;28;20029;-84
2023/09/01 07:30:55;;;;;;;0.55;0.50;;;;;;;;;;5007947;28;20391;-83
2023/09/01 07:33:21;;;;;;;0.47;0.47;;;;;;;;;;5002213;28;20034;-84
2023/09/01 07:35:48;;;;;;;0.52;0.52;;;;;;;;;;4993986;28;20022;-83
2023/09/01 07:38:14;;;;;;;0.50;0.50;;;;;;;;;;5009633;28;20045;-83
2023/09/01 07:40:40;;;;;;;1.05;0.50;;;;;;;;;;4999136;28;20100;-83
2023/09/01 07:43:06;;;;;;;0.57;0.50;;;;;;;;;;4994004;28;20053;-83
2023/09/01 07:45:33;;;;;;;1.38;0.60;;;;;;;;;;5001867;28;20052;-85
2023/09/01 07:47:59;;;;;;;0.50;0.50;;;;;;;;;;5002146;28;20069;-83
2023/09/01 07:50:29;;;;;;;0.55;0.55;;;;;;;;;;4994187;28;20480;-84
2023/09/01 07:52:55;;;;;;;1.13;0.70;;;;;;;;;;5002568;28;20532;-84
2023/09/01 07:55:21;;;;;;;0.47;0.40;;;;;;;;;;4994119;28;20038;-84
2023/09/01 07:57:47;;;;;;;0.40;0.40;;;;;;;;;;4989851;28;20101;-83
2023/09/01 08:00:14;;;;;;;0.43;0.43;;;;;;;;;;4988389;28;20514;-84
2023/09/01 08:02:40;;;;;;;0.55;0.55;;;;;;;;;;5003564;28;20034;-83
2023/09/01 08:05:06;;;;;;;0.60;0.60;;;;;;;;;;5008846;28;20053;-81
2023/09/01 08:07:32;;;;;;;0.57;0.50;;;;;;;;;;5003962;28;20069;-83
2023/09/01 08:09:58;;;;;;;1.40;0.45;;;;;;;;;;5005320;28;20034;-82
2023/09/01 08:12:26;;;;;;;0.32;0.32;;;;;;;;;;5004511;28;20021;-84
2023/09/01 08:14:52;;;;;;;0.75;0.65;;;;;;;;;;4998898;28;20491;-83
2023/09/01 08:17:18;;;;;;;0.85;0.38;;;;;;;;;;5008899;28;20029;-83
2023/09/01 08:19:50;;;;;;;0.50;0.50;;;;;;;;;;4999217;28;20560;-84
2023/09/01 08:22:17;;;;;;;0.50;0.50;;;;;;;;;;4993477;28;20065;-83
2023/09/01 08:24:44;;;;;;;0.95;0.50;;;;;;;;;;5003075;28;20465;-83
2023/09/01 08:27:09;;;;;;;0.60;0.60;;;;;;;;;;5001488;28;20421;-83
2023/09/01 08:29:35;;;;;;;1.13;0.50;;;;;;;;;;5008431;28;20028;-83
2023/09/01 08:32:02;;;;;;;0.60;0.60;;;;;;;;;;4997466;28;20498;-83
2023/09/01 08:34:28;;;;;;;0.57;0.57;;;;;;;;;;5005156;28;20105;-82
2023/09/01 08:36:54;;;;;;;0.55;0.52;;;;;;;;;;5007322;28;20029;-83
2023/09/01 08:39:20;;;;;;;1.80;1.65;;;;;;;;;;5007625;28;20115;-81
2023/09/01 08:41:48;;;;;;;1.35;1.02;;;;;;;;;;5008546;28;20422;-83
2023/09/01 08:44:14;;;;;;;1.80;0.60;;;;;;;;;;5000655;28;20037;-83
2023/09/01 08:46:41;;;;;;;0.90;0.65;;;;;;;;;;4993065;28;20026;-84
2023/09/01 08:49:07;;;;;;;1.40;0.68;;;;;;;;;;4998624;28;20486;-83
2023/09/01 08:51:34;;;;;;;1.02;0.75;;;;;;;;;;5002712;28;20065;-82
2023/09/01 08:54:00;;;;;;;0.45;0.45;;;;;;;;;;5003708;28;20057;-84
2023/09/01 08:56:35;;;;;;;0.52;0.47;;;;;;;;;;5006391;28;20048;-83
2023/09/01 08:59:01;;;;;;;0.55;0.43;;;;;;;;;;5005661;28;20428;-82
2023/09/01 09:01:28;;;;;;;0.88;0.80;;;;;;;;;;5002753;28;20040;-83
2023/09/01 09:03:54;;;;;;;0.73;0.50;;;;;;;;;;4989683;28;20038;-83
2023/09/01 09:06:34;;;;;;;0.55;0.55;;;;;;;;;;5009467;28;20026;-82
2023/09/01 09:09:04;;;;;;;0.43;0.43;;;;;;;;;;4999852;28;20022;-82
2023/09/01 09:11:29;;;;;;;1.23;0.73;;;;;;;;;;5008631;28;20097;-83
2023/09/01 09:13:55;;;;;;;0.52;0.40;;;;;;;;;;5006788;28;20487;-83
2023/09/01 09:16:22;;;;;;;0.60;0.50;;;;;;;;;;5004689;28;20473;-83
2023/09/01 09:18:48;;;;;;;0.80;0.40;;;;;;;;;;4996106;28;20030;-83
2023/09/01 09:21:30;;;;;;;0.50;0.50;;;;;;;;;;5001002;28;20042;-83
2023/09/01 09:24:00;;;;;;;0.50;0.50;;;;;;;;;;5006689;28;20046;-84
2023/09/01 09:26:30;;;;;;;3.92;0.50;;;;;;;;;;5000380;28;20080;-84
2023/09/01 09:29:04;;;;;;;0.75;0.60;;;;;;;;;;5007760;28;20034;-85
2023/09/01 09:31:33;;;;;;;0.65;0.40;;;;;;;;;;5001657;28;20080;-83
2023/09/01 09:34:11;;;;;;;1.35;0.90;;;;;;;;;;4997508;28;20042;-83
2023/09/01 09:36:38;;;;;;;0.30;0.30;;;;;;;;;;4994411;28;20027;-84
2023/09/01 09:39:09;;;;;;;0.40;0.40;;;;;;;;;;4992136;28;20347;-83
2023/09/01 09:41:47;;;;;;;0.60;0.40;;;;;;;;;;5001070;28;20041;-84
2023/09/01 09:44:21;;;;;;;0.43;0.43;;;;;;;;;;5002300;28;20069;-84
2023/09/01 09:46:47;;;;;;;2.22;0.55;;;;;;;;;;5003816;28;20038;-84
2023/09/01 09:49:15;;;;;;;0.50;0.50;;;;;;;;;;5006688;28;20137;-83
2023/09/01 09:51:42;;;;;;;0.80;0.60;;;;;;;;;;5004376;28;20034;-83
2023/09/01 09:54:10;;;;;;;1.10;0.50;;;;;;;;;;5000436;28;20026;-83
2023/09/01 09:56:38;;;;;;;0.70;0.70;;;;;;;;;;5001177;28;20032;-82
2023/09/01 09:59:05;;;;;;;0.55;0.50;;;;;;;;;;5011238;28;20034;-84
2023/09/01 10:01:35;;;;;;;0.63;0.55;;;;;;;;;;5006222;28;20486;-83
2023/09/01 10:04:04;;;;;;;0.40;0.40;;;;;;;;;;5007962;28;20044;-83
2023/09/01 10:06:40;;;;;;;0.43;0.40;;;;;;;;;;5003164;28;20112;-84
2023/09/01 10:09:08;;;;;;;0.50;0.50;;;;;;;;;;4992232;28;20062;-85
2023/09/01 10:11:34;;;;;;;0.70;0.70;;;;;;;;;;4996474;28;20034;-83
2023/09/01 10:14:00;;;;;;;0.30;0.30;;;;;;;;;;4992216;28;20030;-84
2023/09/01 10:16:26;;;;;;;0.75;0.63;;;;;;;;;;4992527;28;20026;-83
2023/09/01 10:18:53;;;;;;;0.50;0.35;;;;;;;;;;4992447;28;20022;-82
2023/09/01 10:21:20;;;;;;;0.73;0.60;;;;;;;;;;4994015;28;20491;-85
2023/09/01 10:23:46;;;;;;;1.17;0.68;;;;;;;;;;5006844;28;20061;-84
2023/09/01 10:26:17;;;;;;;0.70;0.57;;;;;;;;;;5011647;28;20054;-84
2023/09/01 10:29:03;;;;;;;1.27;0.60;;;;;;;;;;5006630;28;20037;-84
2023/09/01 10:31:30;;;;;;;0.60;0.60;;;;;;;;;;5005125;28;20131;-82
2023/09/01 10:34:12;;;;;;;0.57;0.47;;;;;;;;;;5011419;28;20546;-84
2023/09/01 10:36:39;;;;;;;0.50;0.50;;;;;;;;;;5011748;28;20022;-82
2023/09/01 10:39:18;;;;;;;1.65;0.55;;;;;;;;;;5009172;28;20506;-83
2023/09/01 10:41:46;;;;;;;0.50;0.50;;;;;;;;;;5011835;28;20117;-83
2023/09/01 10:44:12;;;;;;;0.40;0.40;;;;;;;;;;5011089;28;20022;-82
2023/09/01 10:46:38;;;;;;;0.40;0.40;;;;;;;;;;4998621;28;20036;-84
2023/09/01 10:49:07;;;;;;;1.08;0.47;;;;;;;;;;5009080;28;20040;-84
2023/09/01 10:51:34;;;;;;;0.88;0.52;;;;;;;;;;5011357;28;20165;-84
2023/09/01 10:54:00;;;;;;;0.68;0.68;;;;;;;;;;5011519;28;20490;-84
2023/09/01 10:56:33;;;;;;;0.43;0.40;;;;;;;;;;5010992;28;20076;-83
2023/09/01 10:58:59;;;;;;;1.23;0.50;;;;;;;;;;5008939;28;20220;-82
2023/09/01 11:01:32;;;;;;;0.60;0.60;;;;;;;;;;4992848;28;20058;-83
2023/09/01 11:04:14;;;;;;;0.63;0.47;;;;;;;;;;5000757;28;20045;-83
2023/09/01 11:06:39;;;;;;;;;;;;;;;;;;4993016;28;20053;-83
2023/09/01 11:09:07;;;;;;;0.43;0.40;;;;;;;;;;5003205;28;19952;-83
2023/09/01 11:11:33;;;;;;;0.55;0.52;;;;;;;;;;5005256;28;20073;-84
2023/09/01 11:14:02;;;;;;;0.47;0.47;;;;;;;;;;5002172;28;20042;-83
2023/09/01 11:16:28;;;;;;;0.70;0.70;;;;;;;;;;4991720;28;20161;-84
2023/09/01 11:19:03;;;;;;;0.43;0.43;;;;;;;;;;4996375;28;20026;-83
2023/09/01 11:21:30;;;;;;;0.43;0.43;;;;;;;;;;4998205;28;20041;-83
2023/09/01 11:24:00;;;;;;;0.85;0.80;;;;;;;;;;5008481;28;20022;-83
2023/09/01 11:26:26;;;;;;;1.25;0.88;;;;;;;;;;5002088;28;20042;-82
2023/09/01 11:28:52;;;;;;;0.30;0.30;;;;;;;;;;5002339;28;20038;-89
2023/09/01 11:31:18;;;;;;;0.50;0.50;;;;;;;;;;5000071;28;20022;-86
2023/09/01 11:33:57;;;;;;;0.45;0.43;;;;;;;;;;5004076;28;20157;-83
2023/09/01 11:36:23;;;;;;;0.60;0.60;;;;;;;;;;5010145;28;20115;-82
2023/09/01 11:38:52;;;;;;;0.50;0.50;;;;;;;;;;5001073;28;20113;-86
2023/09/01 11:41:20;;;;;;;0.68;0.68;;;;;;;;;;4995467;28;20041;-89
2023/09/01 11:43:46;;;;;;;1.02;0.77;;;;;;;;;;5005209;28;20038;-85
2023/09/01 11:46:13;;;;;;;0.80;0.80;;;;;;;;;;5001170;28;20037;-89
2023/09/01 11:48:39;;;;;;;1.70;0.80;;;;;;;;;;5003414;28;20034;-87
2023/09/01 11:51:05;;;;;;;1.05;0.90;;;;;;;;;;4991597;28;20101;-85
2023/09/01 11:53:35;;;;;;;0.60;0.60;;;;;;;;;;4999203;28;20459;-86
2023/09/01 11:56:02;;;;;;;0.60;0.60;;;;;;;;;;5006086;28;20034;-83
2023/09/01 11:58:34;;;;;;;1.23;0.85;;;;;;;;;;5003763;28;20042;-91
2023/09/01 12:01:10;;;;;;;1.00;0.75;;;;;;;;;;5002167;28;20109;-92
2023/09/01 12:03:37;;;;;;;1.80;1.27;;;;;;;;;;5002788;28;20108;-91
2023/09/01 12:06:13;;;;;;;0.70;0.70;;;;;;;;;;4995122;28;20030;-90
2023/09/01 12:08:39;;;;;;;0.45;0.45;;;;;;;;;;5002939;28;20062;-90
2023/09/01 12:11:06;;;;;;;1.05;0.82;;;;;;;;;;5005966;28;20040;-92
2023/09/01 12:13:32;;;;;;;0.85;0.57;;;;;;;;;;5002504;28;20033;-92
2023/09/01 12:15:59;;;;;;;1.23;0.80;;;;;;;;;;5003081;28;20475;-92
2023/09/01 12:18:26;;;;;;;1.50;0.60;;;;;;;;;;5007194;28;20030;-93
2023/09/01 12:20:52;;;;;;;0.80;0.70;;;;;;;;;;5005509;28;20064;-93
2023/09/01 12:23:31;;;;;;;1.88;0.93;;;;;;;;;;4994625;28;20053;-93
2023/09/01 12:25:57;;;;;;;1.10;0.45;;;;;;;;;;4999234;28;20108;-92
2023/09/01 12:28:27;;;;;;;0.82;0.57;;;;;;;;;;5009705;28;20041;-92
2023/09/01 12:30:53;;;;;;;1.42;0.70;;;;;;;;;;5003855;28;20022;-93
2023/09/01 12:33:19;;;;;;;1.15;1.00;;;;;;;;;;5006633;28;20124;-92
2023/09/01 12:35:45;;;;;;;1.70;1.02;;;;;;;;;;5016326;28;20049;-92
2023/09/01 12:41:10;;;;;;;0.70;0.50;;;;;;;;;;4989785;28;20038;-91
2023/09/01 12:43:36;;;;;;;1.50;1.27;;;;;;;;;;5009708;28;20430;-93
2023/09/01 12:46:02;;;;;;;0.93;0.80;;;;;;;;;;5007870;28;20041;-93
2023/09/01 12:48:28;;;;;;;0.65;0.65;;;;;;;;;;5011456;28;20095;-90
2023/09/01 12:50:54;;;;;;;0.75;0.75;;;;;;;;;;5011695;28;20029;-92
2023/09/01 12:53:20;;;;;;;0.95;0.85;;;;;;;;;;5000909;28;20033;-91
2023/09/01 12:55:47;;;;;;;0.98;0.70;;;;;;;;;;5007310;28;20077;-92
2023/09/01 12:58:13;;;;;;;2.97;0.88;;;;;;;;;;5007877;28;20061;-91
2023/09/01 13:00:39;;;;;;;1.45;0.93;;;;;;;;;;5003261;28;20029;-92
2023/09/01 13:03:05;;;;;;;0.88;0.82;;;;;;;;;;4999583;28;20033;-92
2023/09/01 13:05:32;;;;;;;0.73;0.73;;;;;;;;;;5005523;28;20026;-89
2023/09/01 13:07:59;;;;;;;0.82;0.82;;;;;;;;;;5003545;28;20109;-90
2023/09/01 13:10:25;;;;;;;0.47;0.45;;;;;;;;;;4998064;28;20370;-87
2023/09/01 13:12:51;;;;;;;0.90;0.77;;;;;;;;;;5003808;28;20034;-89
2023/09/01 13:15:20;;;;;;;0.82;0.82;;;;;;;;;;5006224;28;20041;-92
2023/09/01 13:17:47;;;;;;;2.65;1.05;;;;;;;;;;5003108;28;20041;-89
2023/09/01 13:20:13;;;;;;;0.68;0.68;;;;;;;;;;5002629;28;20482;-90
2023/09/01 13:22:39;;;;;;;1.23;0.77;;;;;;;;;;5004988;28;20041;-91
2023/09/01 13:25:06;;;;;;;1.20;0.90;;;;;;;;;;5001325;28;20031;-92
2023/09/01 13:27:32;;;;;;;0.98;0.77;;;;;;;;;;5012601;28;20606;-90
2023/09/01 13:29:58;;;;;;;3.28;1.10;;;;;;;;;;5003129;28;20088;-87
2023/09/01 13:32:24;;;;;;;1.58;1.02;;;;;;;;;;5001284;28;20065;-89
2023/09/01 13:34:50;;;;;;;0.90;0.90;;;;;;;;;;5007216;28;20117;-88
2023/09/01 13:37:17;;;;;;;5.25;1.67;;;;;;;;;;5001929;28;20026;-85
2023/09/01 13:39:43;;;;;;;1.98;1.30;;;;;;;;;;5001017;28;20073;-83
2023/09/01 13:42:09;;;;;;;1.02;0.70;;;;;;;;;;4995825;28;20426;-84
2023/09/01 13:44:35;;;;;;;3.08;1.23;;;;;;;;;;4997755;28;20032;-85
2023/09/01 13:47:01;;;;;;;2.25;0.90;;;;;;;;;;5006619;28;20025;-84
2023/09/01 13:49:28;;;;;;;2.42;1.00;;;;;;;;;;5000940;28;20482;-86
2023/09/01 13:51:54;;;;;;;2.25;1.20;;;;;;;;;;5005258;28;20469;-87
2023/09/01 13:54:20;;;;;;;1.27;0.88;;;;;;;;;;5004571;28;20058;-94
2023/09/01 13:56:46;;;;;;;0.77;0.68;;;;;;;;;;5000895;28;20482;-90
2023/09/01 13:59:12;;;;;;;0.90;0.80;;;;;;;;;;5008813;28;20100;-88
2023/09/01 14:01:39;;;;;;;5.45;0.88;;;;;;;;;;5000759;28;20479;-88
2023/09/01 14:04:05;;;;;;;3.42;1.00;;;;;;;;;;5005692;28;20072;-89
2023/09/01 14:06:31;;;;;;;7.88;1.27;;;;;;;;;;5002722;28;20038;-86
2023/09/01 14:08:58;;;;;;;1.00;0.82;;;;;;;;;;5000052;28;20052;-83
2023/09/01 14:11:24;;;;;;;0.90;0.70;;;;;;;;;;4999473;28;20040;-80
2023/09/01 14:13:50;;;;;;;2.28;1.10;;;;;;;;;;5001548;28;20525;-79
2023/09/01 14:16:16;;;;;;;1.20;0.95;;;;;;;;;;4996495;28;20022;-78
2023/09/01 14:18:42;;;;;;;1.30;1.00;;;;;;;;;;5000008;28;20030;-81
2023/09/01 14:21:08;;;;;;;2.60;1.42;;;;;;;;;;5002374;28;20513;-78
2023/09/01 14:23:34;;;;;;;0.77;0.77;;;;;;;;;;4997715;28;20030;-78
2023/09/01 14:26:00;;;;;;;2.25;0.90;;;;;;;;;;5002004;28;20487;-82
2023/09/01 14:28:26;;;;;;;1.35;1.20;;;;;;;;;;5000649;28;20472;-82
2023/09/01 14:30:52;;;;;;;0.70;0.65;;;;;;;;;;5008386;28;20018;-78
2023/09/01 14:33:18;;;;;;;2.13;1.23;;;;;;;;;;5004487;28;20033;-76
2023/09/01 14:35:50;;;;;;;0.65;0.65;;;;;;;;;;5003215;28;20046;-76
2023/09/01 14:38:17;;;;;;;2.30;1.20;;;;;;;;;;5002925;28;20530;-76
2023/09/01 14:40:43;;;;;;;0.80;0.80;;;;;;;;;;5005678;28;20037;-81
2023/09/01 14:43:09;;;;;;;1.05;1.00;;;;;;;;;;5001891;28;20084;-80
2023/09/01 14:45:37;;;;;;;1.25;1.00;;;;;;;;;;5004457;28;20088;-83